Time;durP1;ratioP1;P1;durP2;ratioP2;P2;SDS_P1;SDS_P2;PMS_P1;PMS_P2;Temp;Humidity;BMP_temperature;BMP_pressure;BME280_temperature;BME280_humidity;BME280_pressure;Samples;Min_cycle;Max_cycle;Signal;HPM_P1;HPM_P2
2023/12/14 00:00:25;;;;;;;1.97;1.77;;;15.50;57.50;;;;;;5043817;28;20221;-59
2023/12/14 00:02:51;;;;;;;3.33;1.87;;;15.30;56.80;;;;;;5043979;28;20208;-62
2023/12/14 00:05:17;;;;;;;2.00;1.80;;;15.40;56.90;;;;;;5044164;28;20271;-61
2023/12/14 00:07:42;;;;;;;1.90;1.77;;;15.40;56.80;;;;;;5048005;28;20211;-60
2023/12/14 00:10:08;;;;;;;2.73;1.70;;;15.50;57.10;;;;;;5047743;28;20208;-58
2023/12/14 00:12:33;;;;;;;1.60;1.50;;;15.50;57.20;;;;;;5045275;28;20205;-60
2023/12/14 00:14:59;;;;;;;1.67;1.20;;;15.40;57.20;;;;;;5043530;28;20212;-63
2023/12/14 00:17:24;;;;;;;1.77;1.30;;;15.30;57.60;;;;;;5048271;28;20189;-58
2023/12/14 00:19:50;;;;;;;1.50;1.40;;;15.20;56.80;;;;;;5047347;28;20865;-58
2023/12/14 00:22:16;;;;;;;1.47;1.30;;;14.90;56.70;;;;;;5046497;28;20695;-63
2023/12/14 00:24:41;;;;;;;1.00;1.00;;;14.70;57.10;;;;;;5041788;28;20959;-62
2023/12/14 00:27:07;;;;;;;1.33;1.23;;;14.60;57.50;;;;;;5037356;28;20200;-64
2023/12/14 00:29:33;;;;;;;1.60;1.50;;;14.50;57.90;;;;;;5038551;28;20204;-58
2023/12/14 00:31:58;;;;;;;1.57;1.47;;;14.40;58.70;;;;;;5043420;28;20191;-58
2023/12/14 00:34:24;;;;;;;1.90;1.60;;;14.20;58.50;;;;;;5036023;28;20242;-58
2023/12/14 00:36:49;;;;;;;1.20;1.10;;;14.10;58.90;;;;;;5040013;28;20176;-62
2023/12/14 00:39:15;;;;;;;1.70;1.43;;;14.10;59.20;;;;;;5042564;28;20984;-61
2023/12/14 00:41:41;;;;;;;2.40;1.37;;;14.00;59.40;;;;;;5040767;28;20189;-59
2023/12/14 00:44:06;;;;;;;1.87;1.60;;;14.00;59.40;;;;;;5043735;28;20189;-63
2023/12/14 00:46:32;;;;;;;1.40;1.30;;;13.90;59.60;;;;;;5038427;28;20194;-61
2023/12/14 00:48:57;;;;;;;2.33;1.43;;;13.80;59.90;;;;;;5035647;28;20212;-62
2023/12/14 00:51:23;;;;;;;3.33;2.03;;;13.80;59.90;;;;;;5042938;28;20184;-59
2023/12/14 00:53:48;;;;;;;1.30;1.20;;;13.60;60.30;;;;;;5038994;28;20239;-57
2023/12/14 00:56:14;;;;;;;1.40;1.30;;;13.60;60.60;;;;;;5041216;28;20185;-62
2023/12/14 00:58:39;;;;;;;1.67;1.53;;;13.60;60.60;;;;;;5037517;28;20237;-62
2023/12/14 01:01:05;;;;;;;1.50;1.40;;;13.50;60.70;;;;;;5037852;28;20240;-61
2023/12/14 01:03:31;;;;;;;1.60;1.50;;;13.50;60.70;;;;;;5042559;28;20215;-60
2023/12/14 01:05:56;;;;;;;1.50;1.40;;;13.50;60.70;;;;;;5042908;28;20245;-59
2023/12/14 01:08:22;;;;;;;1.93;1.73;;;13.50;60.90;;;;;;5043708;28;20192;-62
2023/12/14 01:10:47;;;;;;;2.73;1.30;;;13.50;61.00;;;;;;5044794;28;20208;-57
2023/12/14 01:13:13;;;;;;;1.70;1.60;;;13.50;60.80;;;;;;5044709;28;20195;-57
2023/12/14 01:15:38;;;;;;;1.67;1.57;;;13.40;61.00;;;;;;5045767;28;20660;-57
2023/12/14 01:18:04;;;;;;;1.87;1.70;;;13.30;61.30;;;;;;5045678;28;20573;-61
2023/12/14 01:20:30;;;;;;;2.80;1.77;;;13.30;61.50;;;;;;5044333;28;20338;-61
2023/12/14 01:22:55;;;;;;;1.73;1.57;;;13.40;61.90;;;;;;5044178;28;20181;-59
2023/12/14 01:25:21;;;;;;;1.97;1.77;;;13.30;62.20;;;;;;5046640;28;20181;-61
2023/12/14 01:27:46;;;;;;;1.97;1.43;;;13.30;62.40;;;;;;5046807;28;20604;-59
2023/12/14 01:30:12;;;;;;;1.90;1.80;;;13.30;62.20;;;;;;5039986;28;20216;-62
2023/12/14 01:32:38;;;;;;;1.90;1.80;;;13.30;62.30;;;;;;5043609;28;20181;-63
2023/12/14 01:35:04;;;;;;;2.30;2.10;;;13.30;62.20;;;;;;5044377;28;20218;-57
2023/12/14 01:37:30;;;;;;;2.40;2.03;;;13.30;62.20;;;;;;5038324;28;20435;-60
2023/12/14 01:39:55;;;;;;;3.80;1.90;;;13.30;62.30;;;;;;5037179;28;20489;-61
2023/12/14 01:42:21;;;;;;;1.67;1.57;;;13.40;62.40;;;;;;5038768;28;20193;-61
2023/12/14 01:44:47;;;;;;;2.10;1.73;;;13.40;62.30;;;;;;5032652;28;20200;-61
2023/12/14 01:47:12;;;;;;;2.00;1.80;;;13.40;62.40;;;;;;5042640;28;20193;-63
2023/12/14 01:49:38;;;;;;;1.87;1.77;;;13.40;62.60;;;;;;5035646;28;20202;-59
2023/12/14 01:52:04;;;;;;;5.03;1.90;;;13.40;62.70;;;;;;5041858;28;20203;-59
2023/12/14 01:54:30;;;;;;;1.87;1.70;;;13.40;62.70;;;;;;5039736;28;20971;-59
2023/12/14 01:56:55;;;;;;;2.27;2.07;;;13.50;62.60;;;;;;5039148;28;20966;-57
2023/12/14 01:59:21;;;;;;;2.20;2.00;;;13.50;62.60;;;;;;5043081;28;21084;-60
2023/12/14 02:01:53;;;;;;;2.87;1.80;;;13.40;62.40;;;;;;5042927;28;20778;-62
2023/12/14 02:04:18;;;;;;;2.30;2.10;;;13.40;62.70;;;;;;5039579;28;20196;-62
2023/12/14 02:06:44;;;;;;;2.53;1.80;;;13.40;63.20;;;;;;5043347;28;20462;-56
2023/12/14 02:09:09;;;;;;;1.80;1.70;;;13.30;63.20;;;;;;5043804;28;20200;-61
2023/12/14 02:11:35;;;;;;;2.20;2.00;;;13.30;63.30;;;;;;5043248;28;20226;-61
2023/12/14 02:14:11;;;;;;;4.10;2.43;;;13.30;63.20;;;;;;5040520;28;20529;-62
2023/12/14 02:16:39;;;;;;;2.70;1.97;;;13.30;63.20;;;;;;5044231;28;20448;-62
2023/12/14 02:19:05;;;;;;;6.03;2.30;;;13.30;63.30;;;;;;5035807;28;20480;-60
2023/12/14 02:21:31;;;;;;;2.97;2.00;;;13.30;63.50;;;;;;5046211;28;20450;-61
2023/12/14 02:23:56;;;;;;;1.70;1.60;;;13.30;63.40;;;;;;5045942;28;20667;-61
2023/12/14 02:26:22;;;;;;;2.40;2.20;;;13.40;63.40;;;;;;5044100;28;20684;-58
2023/12/14 02:28:48;;;;;;;2.07;1.97;;;13.40;63.60;;;;;;5046774;28;20208;-59
2023/12/14 02:31:13;;;;;;;2.70;1.90;;;13.40;63.60;;;;;;5043253;28;20184;-57
2023/12/14 02:33:39;;;;;;;2.13;1.93;;;13.40;63.70;;;;;;5042373;28;20435;-60
2023/12/14 02:36:05;;;;;;;2.20;2.07;;;13.40;63.60;;;;;;5044717;28;20187;-60
2023/12/14 02:38:31;;;;;;;2.33;2.00;;;13.40;63.40;;;;;;5045003;28;20213;-58
2023/12/14 02:40:56;;;;;;;2.13;1.93;;;13.30;63.50;;;;;;5041033;28;20447;-58
2023/12/14 02:43:23;;;;;;;2.23;2.03;;;13.30;63.50;;;;;;5043749;28;20192;-59
2023/12/14 02:45:49;;;;;;;2.17;1.87;;;13.30;63.50;;;;;;5038617;28;20324;-57
2023/12/14 02:48:15;;;;;;;2.93;2.30;;;13.30;63.50;;;;;;5034660;28;20617;-58
2023/12/14 02:50:40;;;;;;;4.10;2.80;;;13.30;63.70;;;;;;5036374;28;20218;-56
2023/12/14 02:53:06;;;;;;;2.07;1.97;;;13.30;63.90;;;;;;5036174;28;20182;-61
2023/12/14 02:55:31;;;;;;;2.30;2.10;;;13.30;64.30;;;;;;5045009;28;20284;-61
2023/12/14 02:57:57;;;;;;;2.93;2.20;;;13.20;64.20;;;;;;5042712;28;20196;-62
2023/12/14 03:00:22;;;;;;;2.00;1.90;;;13.30;64.50;;;;;;5045448;28;20223;-60
2023/12/14 03:02:48;;;;;;;2.67;2.47;;;13.30;64.40;;;;;;5043675;28;20278;-58
2023/12/14 03:05:14;;;;;;;4.80;1.90;;;13.20;64.10;;;;;;5044457;28;20177;-61
2023/12/14 03:07:39;;;;;;;2.13;1.93;;;13.20;63.90;;;;;;5046481;28;20645;-61
2023/12/14 03:10:05;;;;;;;2.20;1.80;;;13.30;63.90;;;;;;5050207;28;20221;-58
2023/12/14 03:12:31;;;;;;;3.77;2.63;;;13.30;63.90;;;;;;5049524;28;20180;-57
2023/12/14 03:14:56;;;;;;;2.30;2.10;;;13.30;64.00;;;;;;5046456;28;20449;-58
2023/12/14 03:17:22;;;;;;;2.50;2.30;;;13.30;64.10;;;;;;5044447;28;20239;-61
2023/12/14 03:19:48;;;;;;;2.10;2.00;;;13.30;64.30;;;;;;5047895;28;20236;-59
2023/12/14 03:22:13;;;;;;;2.40;2.20;;;13.30;64.30;;;;;;5047451;28;20204;-61
2023/12/14 03:24:39;;;;;;;3.03;2.47;;;13.30;64.60;;;;;;5044693;28;20298;-58
2023/12/14 03:27:04;;;;;;;2.43;2.23;;;13.30;64.20;;;;;;5048800;28;20184;-62
2023/12/14 03:29:30;;;;;;;3.53;2.67;;;13.20;64.10;;;;;;5049317;28;20773;-58
2023/12/14 03:31:56;;;;;;;3.20;2.60;;;13.20;64.50;;;;;;5051385;28;20198;-61
2023/12/14 03:34:22;;;;;;;2.40;2.20;;;13.20;65.20;;;;;;5049329;28;20942;-61
2023/12/14 03:36:48;;;;;;;2.50;2.30;;;13.20;64.30;;;;;;5050808;28;20184;-60
2023/12/14 03:39:14;;;;;;;3.30;2.63;;;13.20;64.20;;;;;;5048835;28;20222;-57
2023/12/14 03:41:39;;;;;;;2.50;2.30;;;13.30;64.10;;;;;;5040968;28;20559;-60
2023/12/14 03:44:05;;;;;;;2.77;2.53;;;13.30;64.00;;;;;;5044148;28;21257;-60
2023/12/14 03:46:30;;;;;;;3.00;2.80;;;13.20;64.10;;;;;;5043204;28;20185;-58
2023/12/14 03:48:56;;;;;;;3.37;2.93;;;13.20;64.30;;;;;;5044247;28;20204;-60
2023/12/14 03:51:22;;;;;;;2.77;2.57;;;13.20;64.40;;;;;;5049005;28;20192;-57
2023/12/14 03:53:48;;;;;;;5.00;3.07;;;13.20;64.70;;;;;;5043516;28;20184;-61
2023/12/14 03:56:13;;;;;;;2.83;2.63;;;13.20;65.80;;;;;;5048475;28;20442;-60
2023/12/14 03:58:39;;;;;;;2.73;2.53;;;13.20;65.10;;;;;;5044912;28;20212;-61
2023/12/14 04:01:04;;;;;;;3.23;2.93;;;13.20;65.10;;;;;;5047336;28;20224;-60
2023/12/14 04:03:30;;;;;;;3.73;3.43;;;13.20;65.20;;;;;;5049144;28;20193;-59
2023/12/14 04:05:55;;;;;;;3.70;3.40;;;13.30;65.40;;;;;;5043137;28;20173;-60
2023/12/14 04:08:21;;;;;;;2.97;2.77;;;13.20;65.40;;;;;;5046026;28;20256;-57
2023/12/14 04:10:47;;;;;;;5.23;3.63;;;13.20;65.60;;;;;;5048277;28;20318;-58
2023/12/14 04:13:12;;;;;;;8.13;3.23;;;13.20;65.70;;;;;;5049139;28;20196;-58
2023/12/14 04:15:38;;;;;;;3.43;3.23;;;13.20;65.70;;;;;;5047708;28;20184;-58
2023/12/14 04:18:04;;;;;;;3.97;3.43;;;13.20;65.60;;;;;;5047949;28;20732;-58
2023/12/14 04:20:29;;;;;;;4.27;2.87;;;13.20;65.70;;;;;;5044205;28;20254;-62
2023/12/14 04:22:55;;;;;;;3.13;2.90;;;13.20;66.40;;;;;;5046721;28;20671;-55
2023/12/14 04:25:20;;;;;;;6.50;3.80;;;13.20;65.70;;;;;;5044100;28;20214;-57
2023/12/14 04:27:46;;;;;;;3.40;3.10;;;13.20;65.90;;;;;;5036876;28;20613;-61
2023/12/14 04:30:12;;;;;;;4.00;3.60;;;13.20;65.90;;;;;;5044365;28;20204;-59
2023/12/14 04:32:38;;;;;;;3.07;2.87;;;13.20;65.80;;;;;;5043689;28;20670;-61
2023/12/14 04:35:04;;;;;;;3.67;3.47;;;13.20;65.70;;;;;;5048501;28;20184;-59
2023/12/14 04:37:30;;;;;;;2.97;2.77;;;13.20;65.70;;;;;;5045106;28;20432;-61
2023/12/14 04:39:57;;;;;;;11.43;3.20;;;13.20;65.80;;;;;;5043717;28;20624;-58
2023/12/14 04:42:22;;;;;;;3.03;2.83;;;13.20;65.70;;;;;;5041654;28;20525;-62
2023/12/14 04:44:48;;;;;;;3.10;2.73;;;13.20;65.60;;;;;;5046573;28;20922;-57
2023/12/14 04:47:14;;;;;;;3.10;2.90;;;13.20;65.70;;;;;;5046485;28;20691;-61
2023/12/14 04:49:40;;;;;;;3.90;2.90;;;13.20;65.70;;;;;;5044557;28;20211;-62
2023/12/14 04:52:05;;;;;;;3.23;2.90;;;13.20;65.80;;;;;;5045721;28;20486;-59
2023/12/14 04:54:31;;;;;;;3.23;3.03;;;13.20;65.90;;;;;;5043800;28;20266;-63
2023/12/14 04:56:57;;;;;;;4.27;3.53;;;13.20;66.00;;;;;;5039765;28;20197;-61
2023/12/14 04:59:22;;;;;;;3.20;2.90;;;13.20;66.10;;;;;;5046276;28;20208;-62
2023/12/14 05:01:48;;;;;;;3.00;2.80;;;13.20;66.10;;;;;;5045396;28;20649;-61
2023/12/14 05:04:13;;;;;;;3.40;2.87;;;13.20;66.10;;;;;;5045496;28;20555;-59
2023/12/14 05:06:39;;;;;;;3.63;2.90;;;13.20;66.10;;;;;;5043975;28;20617;-57
2023/12/14 05:09:06;;;;;;;4.20;2.27;;;13.20;66.10;;;;;;5043928;28;20216;-63
2023/12/14 05:11:32;;;;;;;3.00;2.80;;;13.10;65.90;;;;;;5041337;28;20216;-63
2023/12/14 05:13:58;;;;;;;2.90;2.70;;;13.20;66.00;;;;;;5046865;28;20435;-61
2023/12/14 05:16:27;;;;;;;3.23;2.77;;;13.20;66.90;;;;;;5045677;28;20446;-61
2023/12/14 05:18:53;;;;;;;2.90;2.70;;;13.20;66.20;;;;;;5045933;28;20220;-61
2023/12/14 05:21:19;;;;;;;3.20;2.90;;;13.20;66.30;;;;;;5044781;28;20597;-61
2023/12/14 05:23:45;;;;;;;3.33;3.03;;;13.10;66.50;;;;;;5045547;28;20534;-62
2023/12/14 05:26:10;;;;;;;3.10;2.80;;;13.20;66.70;;;;;;5045015;28;20196;-61
2023/12/14 05:28:36;;;;;;;3.60;3.00;;;13.20;66.80;;;;;;5047034;28;20185;-58
2023/12/14 05:31:02;;;;;;;3.17;2.87;;;13.20;66.90;;;;;;5046985;28;20181;-63
2023/12/14 05:33:28;;;;;;;3.27;3.03;;;13.20;67.00;;;;;;5047285;28;20185;-57
2023/12/14 05:35:54;;;;;;;4.40;4.00;;;13.20;66.90;;;;;;5044113;28;21014;-62
2023/12/14 05:38:19;;;;;;;4.53;4.23;;;13.30;67.20;;;;;;5047752;28;20275;-60
2023/12/14 05:40:45;;;;;;;3.30;3.10;;;13.30;67.40;;;;;;5044787;28;20193;-60
2023/12/14 05:43:11;;;;;;;4.30;3.60;;;13.20;67.40;;;;;;5047102;28;20704;-66
2023/12/14 05:45:36;;;;;;;3.50;3.20;;;13.20;67.40;;;;;;5044225;28;20192;-60
2023/12/14 05:48:05;;;;;;;3.13;2.83;;;13.30;67.60;;;;;;5047152;28;20720;-61
2023/12/14 05:50:31;;;;;;;2.90;2.53;;;13.30;67.40;;;;;;5041207;28;20212;-59
2023/12/14 05:52:56;;;;;;;5.00;2.77;;;13.30;67.40;;;;;;5045779;28;20443;-61
2023/12/14 05:55:22;;;;;;;5.77;4.27;;;13.30;67.30;;;;;;5041246;28;20191;-60
2023/12/14 05:57:49;;;;;;;10.20;3.40;;;13.30;67.20;;;;;;5041087;28;20239;-60
2023/12/14 06:00:14;;;;;;;7.43;2.83;;;13.30;67.40;;;;;;5040056;28;20220;-57
2023/12/14 06:02:40;;;;;;;2.80;2.60;;;13.30;67.20;;;;;;5043553;28;20818;-59
2023/12/14 06:05:07;;;;;;;3.00;2.80;;;13.30;67.20;;;;;;5041985;28;20185;-61
2023/12/14 06:07:33;;;;;;;4.83;4.33;;;13.30;67.00;;;;;;5047610;28;20246;-57
2023/12/14 06:09:58;;;;;;;9.17;5.70;;;13.30;67.00;;;;;;5044948;28;20450;-59
2023/12/14 06:12:24;;;;;;;6.40;4.67;;;13.30;67.00;;;;;;5046664;28;20192;-60
2023/12/14 06:14:50;;;;;;;5.00;4.30;;;13.40;67.10;;;;;;5041995;28;20189;-62
2023/12/14 06:17:16;;;;;;;4.90;4.50;;;13.40;66.90;;;;;;5044736;28;20188;-60
2023/12/14 06:19:41;;;;;;;7.30;5.90;;;13.40;67.40;;;;;;5038144;28;20266;-56
2023/12/14 06:22:07;;;;;;;7.53;6.10;;;13.50;67.80;;;;;;5043828;28;20494;-59
2023/12/14 06:24:33;;;;;;;6.97;5.80;;;13.80;68.00;;;;;;5045521;28;20215;-60
2023/12/14 06:26:58;;;;;;;8.77;7.60;;;13.90;67.10;;;;;;5045265;28;20636;-59
2023/12/14 06:29:24;;;;;;;5.80;5.30;;;13.90;66.20;;;;;;5039629;28;20243;-61
2023/12/14 06:31:49;;;;;;;4.20;3.80;;;14.00;65.90;;;;;;5042357;28;20189;-57
2023/12/14 06:34:15;;;;;;;9.60;5.27;;;14.00;65.10;;;;;;5041793;28;20207;-57
2023/12/14 06:36:47;;;;;;;6.23;4.87;;;14.00;64.80;;;;;;5046028;28;20664;-59
2023/12/14 06:39:12;;;;;;;5.63;4.00;;;14.00;64.90;;;;;;5043531;28;20220;-62
2023/12/14 06:41:38;;;;;;;11.30;4.10;;;14.00;65.00;;;;;;5045641;28;20488;-63
2023/12/14 06:44:05;;;;;;;6.00;4.17;;;14.00;65.10;;;;;;5045470;28;20188;-62
2023/12/14 06:46:30;;;;;;;5.37;4.07;;;14.10;65.40;;;;;;5043742;28;20481;-60
2023/12/14 06:48:56;;;;;;;4.93;4.43;;;14.20;65.00;;;;;;5050409;28;20988;-60
2023/12/14 06:51:22;;;;;;;5.40;4.77;;;14.30;64.40;;;;;;5049845;28;20361;-60
2023/12/14 06:53:48;;;;;;;7.23;4.60;;;14.30;64.00;;;;;;5047240;28;20332;-62
2023/12/14 06:56:13;;;;;;;3.43;3.10;;;14.30;63.90;;;;;;5051276;28;20422;-61
2023/12/14 06:58:41;;;;;;;4.80;4.37;;;14.30;63.70;;;;;;5048487;28;20556;-59
2023/12/14 07:01:07;;;;;;;6.00;4.67;;;14.30;63.50;;;;;;5049520;28;20528;-62
2023/12/14 07:03:33;;;;;;;4.57;3.80;;;14.30;63.40;;;;;;5045245;28;20489;-62
2023/12/14 07:05:59;;;;;;;4.23;3.60;;;14.20;63.20;;;;;;5047687;28;20475;-60
2023/12/14 07:08:25;;;;;;;9.13;3.80;;;14.20;63.30;;;;;;5050576;28;20652;-59
2023/12/14 07:10:50;;;;;;;9.83;3.93;;;14.20;63.70;;;;;;5047117;28;20181;-62
2023/12/14 07:13:16;;;;;;;5.13;4.63;;;14.20;63.90;;;;;;5047348;28;20435;-62
2023/12/14 07:15:42;;;;;;;4.77;4.37;;;14.20;64.00;;;;;;5043475;28;20189;-57
2023/12/14 07:18:07;;;;;;;6.33;3.97;;;14.20;63.90;;;;;;5049582;28;20267;-57
2023/12/14 07:20:33;;;;;;;4.90;4.40;;;14.20;63.90;;;;;;5042357;28;20683;-60
2023/12/14 07:22:58;;;;;;;5.73;5.23;;;14.20;63.80;;;;;;5045355;28;20215;-62
2023/12/14 07:25:24;;;;;;;5.80;5.27;;;14.20;63.70;;;;;;5046419;28;20211;-61
2023/12/14 07:27:50;;;;;;;5.30;4.80;;;14.20;63.80;;;;;;5047975;28;20189;-57
2023/12/14 07:30:16;;;;;;;9.20;4.53;;;14.30;63.90;;;;;;5042540;28;20209;-60
2023/12/14 07:32:42;;;;;;;4.13;3.73;;;14.40;64.20;;;;;;5048694;28;20427;-60
2023/12/14 07:35:08;;;;;;;3.30;3.00;;;14.50;63.80;;;;;;5045867;28;20422;-60
2023/12/14 07:37:34;;;;;;;4.13;3.50;;;14.50;63.50;;;;;;5048379;28;20181;-57
2023/12/14 07:39:59;;;;;;;7.50;4.67;;;14.60;63.30;;;;;;5049036;28;20467;-60
2023/12/14 07:42:25;;;;;;;5.30;4.23;;;14.70;62.90;;;;;;5048005;28;20268;-64
2023/12/14 07:44:51;;;;;;;4.87;3.90;;;14.70;62.70;;;;;;5048305;28;20192;-63
2023/12/14 07:47:16;;;;;;;6.43;3.63;;;14.70;62.20;;;;;;5047307;28;20524;-58
2023/12/14 07:49:42;;;;;;;4.83;4.30;;;14.70;62.00;;;;;;5046170;28;20212;-61
2023/12/14 07:52:09;;;;;;;5.23;3.70;;;14.70;61.90;;;;;;5028280;28;20258;-58
2023/12/14 07:54:35;;;;;;;8.33;5.57;;;14.70;61.60;;;;;;5048423;28;20683;-63
2023/12/14 07:57:00;;;;;;;5.60;5.00;;;14.80;61.70;;;;;;5045108;28;20466;-58
2023/12/14 07:59:26;;;;;;;6.10;5.27;;;14.70;61.30;;;;;;5047408;28;22622;-60
2023/12/14 08:01:51;;;;;;;5.93;4.80;;;14.70;61.40;;;;;;5045043;28;20189;-61
2023/12/14 08:04:17;;;;;;;6.27;5.67;;;14.60;61.60;;;;;;5049079;28;20192;-61
2023/12/14 08:06:43;;;;;;;7.27;5.30;;;14.60;61.60;;;;;;5048188;28;20181;-58
2023/12/14 08:09:08;;;;;;;10.30;4.60;;;14.60;61.80;;;;;;5046074;28;20204;-58
2023/12/14 08:11:34;;;;;;;5.10;4.60;;;14.50;62.10;;;;;;5045658;28;20255;-58
2023/12/14 08:14:00;;;;;;;4.87;4.47;;;14.50;62.40;;;;;;5049693;28;20560;-59
2023/12/14 08:16:25;;;;;;;5.50;5.00;;;14.50;62.70;;;;;;5042980;28;20712;-62
2023/12/14 08:18:51;;;;;;;5.00;4.47;;;14.40;63.00;;;;;;5047191;28;20208;-59
2023/12/14 08:21:18;;;;;;;7.30;4.50;;;14.50;63.50;;;;;;5045738;28;20204;-58
2023/12/14 08:23:43;;;;;;;5.30;4.80;;;14.50;63.50;;;;;;5047499;28;20184;-62
2023/12/14 08:26:11;;;;;;;5.43;4.93;;;14.50;63.50;;;;;;5048703;28;20812;-57
2023/12/14 08:28:37;;;;;;;5.73;4.77;;;14.50;64.10;;;;;;5042136;28;20702;-59
2023/12/14 08:31:03;;;;;;;5.47;4.57;;;14.50;63.30;;;;;;5045173;28;20420;-58
2023/12/14 08:33:29;;;;;;;7.80;4.93;;;14.60;63.60;;;;;;5050943;28;20196;-59
2023/12/14 08:35:55;;;;;;;5.67;4.50;;;14.60;63.70;;;;;;5046538;28;20985;-59
2023/12/14 08:38:21;;;;;;;5.20;3.77;;;14.60;63.60;;;;;;5049139;28;20427;-62
2023/12/14 08:40:47;;;;;;;8.37;4.10;;;14.70;63.80;;;;;;5042720;28;20483;-58
2023/12/14 08:43:12;;;;;;;5.30;4.80;;;14.70;63.60;;;;;;5047740;28;20188;-59
2023/12/14 08:45:38;;;;;;;5.50;5.00;;;14.70;63.40;;;;;;5046443;28;20181;-58
2023/12/14 08:48:04;;;;;;;6.77;4.90;;;14.70;63.40;;;;;;5048250;28;20173;-62
2023/12/14 08:50:30;;;;;;;4.60;4.20;;;14.80;63.50;;;;;;5044719;28;20204;-61
2023/12/14 08:52:58;;;;;;;6.07;5.40;;;14.80;64.20;;;;;;5047648;28;20493;-61
2023/12/14 08:55:24;;;;;;;8.97;5.87;;;14.80;63.50;;;;;;5042533;28;20189;-61
2023/12/14 08:57:50;;;;;;;5.63;5.03;;;14.80;63.40;;;;;;5046869;28;20427;-59
2023/12/14 09:00:17;;;;;;;7.53;6.83;;;14.80;63.50;;;;;;5046660;28;20223;-62
2023/12/14 09:02:45;;;;;;;7.10;6.40;;;14.80;63.60;;;;;;5046839;28;20801;-56
2023/12/14 09:05:15;;;;;;;7.03;5.73;;;14.90;63.40;;;;;;5046522;28;20810;-58
2023/12/14 09:07:41;;;;;;;8.90;7.00;;;14.90;63.70;;;;;;5044625;28;20438;-57
2023/12/14 09:10:07;;;;;;;6.90;6.20;;;14.90;64.50;;;;;;5044342;28;20443;-59
2023/12/14 09:12:34;;;;;;;9.30;6.00;;;14.90;63.50;;;;;;5049955;28;20231;-57
2023/12/14 09:15:00;;;;;;;6.40;5.80;;;14.90;63.40;;;;;;5045139;28;20455;-59
2023/12/14 09:17:26;;;;;;;6.60;5.90;;;15.00;63.60;;;;;;5046533;28;20443;-59
2023/12/14 09:19:52;;;;;;;5.93;5.43;;;15.00;63.40;;;;;;5043547;28;20623;-62
2023/12/14 09:22:17;;;;;;;7.00;6.30;;;15.10;63.40;;;;;;5046229;28;21003;-58
2023/12/14 09:24:43;;;;;;;8.60;6.27;;;15.10;63.30;;;;;;5047686;28;20193;-59
2023/12/14 09:27:08;;;;;;;6.90;6.17;;;15.10;63.30;;;;;;5050175;28;20176;-58
2023/12/14 09:29:34;;;;;;;8.83;6.73;;;15.20;63.30;;;;;;5041168;28;20258;-58
2023/12/14 09:32:00;;;;;;;9.33;6.50;;;15.20;63.30;;;;;;5044008;28;20655;-53
2023/12/14 09:34:25;;;;;;;6.53;5.93;;;15.20;63.10;;;;;;5047446;28;20185;-57
2023/12/14 09:36:51;;;;;;;7.97;6.43;;;15.20;62.90;;;;;;5045932;28;20177;-59
2023/12/14 09:39:19;;;;;;;6.83;6.13;;;15.20;63.10;;;;;;5043726;28;20216;-56
2023/12/14 09:41:45;;;;;;;8.10;6.70;;;15.30;63.30;;;;;;5044318;28;20407;-58
2023/12/14 09:44:11;;;;;;;9.83;7.87;;;15.30;63.20;;;;;;5045455;28;20405;-61
2023/12/14 09:46:38;;;;;;;7.53;6.60;;;15.30;63.10;;;;;;5047789;28;20462;-59
2023/12/14 09:49:04;;;;;;;10.03;7.27;;;15.40;64.00;;;;;;5043084;28;20498;-60
2023/12/14 09:51:30;;;;;;;7.87;7.10;;;15.30;63.50;;;;;;5046677;28;20415;-57
2023/12/14 09:53:58;;;;;;;10.33;7.90;;;15.30;62.70;;;;;;5046240;28;20479;-58
2023/12/14 09:56:27;;;;;;;8.60;7.37;;;15.10;62.30;;;;;;5048552;28;20423;-58
2023/12/14 09:58:53;;;;;;;8.53;7.67;;;14.90;62.90;;;;;;5044380;28;20522;-60
2023/12/14 10:01:24;;;;;;;10.37;7.90;;;14.70;63.90;;;;;;5046663;28;20445;-60
2023/12/14 10:03:49;;;;;;;9.43;8.40;;;14.50;64.50;;;;;;5042852;28;20434;-60
2023/12/14 10:06:15;;;;;;;8.20;7.33;;;14.50;64.10;;;;;;5045130;28;20434;-56
2023/12/14 10:08:41;;;;;;;9.70;8.70;;;14.60;63.80;;;;;;5048639;28;20212;-59
2023/12/14 10:11:16;;;;;;;9.17;7.57;;;14.60;64.10;;;;;;5047004;28;20671;-57
2023/12/14 10:13:41;;;;;;;8.30;7.50;;;14.70;63.20;;;;;;5042820;28;20250;-56
2023/12/14 10:16:07;;;;;;;8.60;7.73;;;14.70;63.70;;;;;;5042144;28;20442;-57
2023/12/14 10:18:36;;;;;;;9.30;7.70;;;14.70;64.10;;;;;;5043572;28;20238;-57
2023/12/14 10:21:02;;;;;;;8.90;7.70;;;14.80;64.00;;;;;;5046649;28;20196;-56
2023/12/14 10:23:29;;;;;;;8.60;7.70;;;14.90;63.60;;;;;;5044989;28;20952;-56
2023/12/14 10:25:55;;;;;;;9.30;8.40;;;15.00;63.80;;;;;;5047826;28;20787;-54
2023/12/14 10:28:22;;;;;;;9.90;8.03;;;15.10;64.00;;;;;;5044931;28;20472;-59
2023/12/14 10:30:47;;;;;;;9.77;8.60;;;15.20;64.20;;;;;;5042390;28;20208;-62
2023/12/14 10:33:14;;;;;;;9.33;8.33;;;15.20;64.00;;;;;;5042233;28;20969;-56
2023/12/14 10:35:41;;;;;;;9.20;7.63;;;15.20;63.60;;;;;;5045234;28;20264;-59
2023/12/14 10:38:09;;;;;;;9.53;8.30;;;15.20;63.50;;;;;;5040295;28;20984;-61
2023/12/14 10:40:40;;;;;;;12.93;9.43;;;15.10;63.70;;;;;;5043222;28;20955;-59
2023/12/14 10:43:06;;;;;;;13.03;9.50;;;15.10;64.00;;;;;;5042771;28;20498;-58
2023/12/14 10:45:33;;;;;;;10.60;9.53;;;15.00;63.90;;;;;;5040605;28;20443;-58
2023/12/14 10:48:00;;;;;;;12.70;9.40;;;15.00;63.80;;;;;;5035357;28;20447;-57
2023/12/14 10:50:31;;;;;;;12.13;9.40;;;14.90;64.20;;;;;;5041296;28;20812;-60
2023/12/14 10:53:01;;;;;;;10.20;9.13;;;14.90;64.40;;;;;;5042061;28;20431;-58
2023/12/14 10:55:44;;;;;;;12.13;9.20;;;14.90;64.20;;;;;;5045444;28;20454;-59
2023/12/14 10:58:11;;;;;;;11.90;9.37;;;15.00;64.20;;;;;;5044088;28;20933;-57
2023/12/14 11:00:37;;;;;;;16.40;9.13;;;14.90;64.30;;;;;;5044250;28;20477;-58
2023/12/14 11:03:06;;;;;;;11.60;9.27;;;14.80;64.20;;;;;;5046375;28;20821;-57
2023/12/14 11:05:33;;;;;;;12.20;9.43;;;14.70;64.60;;;;;;5045975;28;20493;-60
2023/12/14 11:08:09;;;;;;;15.97;9.00;;;14.70;64.90;;;;;;5044155;28;20438;-57
2023/12/14 11:10:43;;;;;;;10.23;8.17;;;14.70;64.90;;;;;;5042634;28;21080;-58
2023/12/14 11:13:14;;;;;;;10.50;8.37;;;14.80;65.00;;;;;;5045873;28;20950;-56
2023/12/14 11:15:52;;;;;;;10.40;8.03;;;14.80;65.00;;;;;;5041175;28;20894;-57
2023/12/14 11:18:17;;;;;;;15.30;9.27;;;14.80;65.10;;;;;;5041474;28;20466;-58
2023/12/14 11:20:45;;;;;;;11.00;9.13;;;14.80;65.00;;;;;;5039209;28;21052;-55
2023/12/14 11:23:13;;;;;;;11.13;9.23;;;14.80;65.30;;;;;;5048278;28;20207;-55
2023/12/14 11:25:40;;;;;;;9.53;8.63;;;14.90;65.10;;;;;;5043614;28;20860;-59
2023/12/14 11:28:09;;;;;;;13.23;8.37;;;15.00;66.00;;;;;;5041629;28;20451;-59
2023/12/14 11:30:37;;;;;;;11.33;8.73;;;15.00;65.10;;;;;;5048398;28;20854;-59
2023/12/14 11:33:03;;;;;;;10.17;8.33;;;15.10;65.30;;;;;;5047838;28;20439;-57
2023/12/14 11:35:29;;;;;;;11.60;7.83;;;15.10;65.10;;;;;;5050759;28;21005;-56
2023/12/14 11:37:59;;;;;;;9.70;8.63;;;15.10;65.20;;;;;;5049064;28;20811;-58
2023/12/14 11:40:26;;;;;;;12.00;9.10;;;15.20;65.30;;;;;;5045571;28;20470;-58
2023/12/14 11:42:59;;;;;;;9.37;8.20;;;15.20;64.90;;;;;;5049521;28;20446;-61
2023/12/14 11:45:25;;;;;;;8.57;7.03;;;15.30;64.70;;;;;;5045333;28;20455;-55
2023/12/14 11:47:51;;;;;;;10.53;7.53;;;15.30;64.60;;;;;;5050737;28;20843;-57
2023/12/14 11:50:17;;;;;;;8.17;6.80;;;15.30;64.90;;;;;;5044647;28;20462;-59
2023/12/14 11:52:43;;;;;;;7.10;6.40;;;15.30;64.90;;;;;;5051841;28;20450;-60
2023/12/14 11:55:14;;;;;;;11.27;6.87;;;15.30;64.60;;;;;;5047603;28;20186;-58
2023/12/14 11:57:45;;;;;;;8.30;5.93;;;15.30;64.60;;;;;;5043944;28;20794;-61
2023/12/14 12:00:11;;;;;;;8.10;7.27;;;15.40;64.50;;;;;;5046416;28;20478;-61
2023/12/14 12:02:37;;;;;;;9.13;7.73;;;15.30;64.10;;;;;;5043675;28;20462;-60
2023/12/14 12:05:03;;;;;;;7.23;6.53;;;15.20;63.50;;;;;;5046056;28;20440;-62
2023/12/14 12:07:29;;;;;;;7.83;7.10;;;15.10;63.90;;;;;;5040874;28;20447;-61
2023/12/14 12:09:54;;;;;;;10.43;7.57;;;15.00;64.10;;;;;;5048792;28;20469;-62
2023/12/14 12:12:21;;;;;;;9.50;7.70;;;15.00;64.10;;;;;;5050923;28;20553;-61
2023/12/14 12:14:49;;;;;;;9.53;6.93;;;15.00;64.10;;;;;;5048740;28;20180;-62
2023/12/14 12:17:15;;;;;;;12.07;8.80;;;14.90;64.00;;;;;;5045876;28;20457;-61
2023/12/14 12:19:42;;;;;;;7.80;7.00;;;14.90;64.10;;;;;;5048907;28;20478;-58
2023/12/14 12:22:08;;;;;;;14.07;8.67;;;14.90;63.60;;;;;;5049393;28;20478;-61
2023/12/14 12:24:34;;;;;;;9.53;7.60;;;14.90;63.80;;;;;;5046118;28;20931;-58
2023/12/14 12:27:00;;;;;;;10.13;8.43;;;14.80;63.50;;;;;;5046499;28;20279;-59
2023/12/14 12:29:25;;;;;;;9.23;7.30;;;14.60;63.40;;;;;;5047564;28;21356;-61
2023/12/14 12:31:51;;;;;;;9.00;7.73;;;14.70;63.80;;;;;;5049207;28;20652;-59
2023/12/14 12:34:17;;;;;;;11.43;8.10;;;14.60;63.60;;;;;;5048363;28;20230;-61
2023/12/14 12:36:43;;;;;;;9.37;7.67;;;14.60;63.70;;;;;;5049155;28;20939;-61
2023/12/14 12:39:09;;;;;;;9.33;7.70;;;14.70;63.50;;;;;;5046782;28;20471;-63